Port-aux-Basques, Canada
Current Conditions -  °F | °C
As of 6:00 AM on Thursday 23 Oct 2014 (Local Time) from CWZB Reporting Station
Clear Clear  
Wind Chill: 37°   Ceiling: Unl
Heat Index: 44°   Visibility: 9mi
Dew Point: 39°   Wind: 13mph
Humidity: 84%   Direction: 60°ENE
Pressure: 30.37"   Gusts: NA
Location:  47.57°N, 59.14°W
Report Text: CWZB 230800Z AUTO 06011KT 9SM NSC 06/04 A3037 RMK SLP284 T00640039 WSI/SWOB
Loading
Personal Weather Stations






























Interactive Weather Map
Tropical Storm Tracking
New forecast layout! Learn more

10-Day Weather Forecast

Advertisements
Track Severe Weather on mobile